FACN weather

Carnarvon Airport
Carnarvon, Northern Cape, South Africa

Public forecast

Using degrees Celsius for public forecast. Weather courtesy of forecast.io.

Closest aviation weather report (METAR) to Carnarvon Airport

Report is more than 6 hours old.

Closest report is De Aar Military Airport, 94.6 nm (175.2 km) ENE. Retrieved 2020/05/25 06:27 UTC (23 hours ago):

FADY 250627Z 32008KT CAVOK 13/00 Q1014

Closest aviation forecast (TAF) to Carnarvon Airport

Closest forecast is Bram Fischer International Airport, 244.8 nm (453.4 km) ENE. Retrieved 2020-05-26 00:00 UTC (5 hours ago):

TAF FABL 252200Z 2600/2624 24012KT 9999 SCT030 TX11/2612Z TNM04/2604Z BECMG 2606/2608 18012KT